sensor_id;sensor_type;location;lat;lon;timestamp;P1;durP1;ratioP1;P2;durP2;ratioP2
68989;SDS011;56046;47.270;11.368;2023-02-15T00:01:42;5.40;;;1.90;;
68989;SDS011;56046;47.270;11.368;2023-02-15T00:04:08;6.10;;;2.30;;
68989;SDS011;56046;47.270;11.368;2023-02-15T00:06:34;6.63;;;2.00;;
68989;SDS011;56046;47.270;11.368;2023-02-15T00:08:59;5.63;;;2.10;;
68989;SDS011;56046;47.270;11.368;2023-02-15T00:11:25;6.50;;;2.03;;
68989;SDS011;56046;47.270;11.368;2023-02-15T00:14:07;7.13;;;2.67;;
68989;SDS011;56046;47.270;11.368;2023-02-15T00:16:33;6.40;;;2.40;;
68989;SDS011;56046;47.270;11.368;2023-02-15T00:18:58;6.63;;;2.20;;
68989;SDS011;56046;47.270;11.368;2023-02-15T00:21:26;7.13;;;2.45;;
68989;SDS011;56046;47.270;11.368;2023-02-15T00:23:52;7.63;;;2.58;;
68989;SDS011;56046;47.270;11.368;2023-02-15T00:26:17;6.50;;;2.50;;
68989;SDS011;56046;47.270;11.368;2023-02-15T00:28:42;5.73;;;2.27;;
68989;SDS011;56046;47.270;11.368;2023-02-15T00:31:08;5.33;;;1.93;;
68989;SDS011;56046;47.270;11.368;2023-02-15T00:33:34;3.53;;;1.33;;
68989;SDS011;56046;47.270;11.368;2023-02-15T00:36:00;5.03;;;1.45;;
68989;SDS011;56046;47.270;11.368;2023-02-15T00:38:26;5.07;;;1.67;;
68989;SDS011;56046;47.270;11.368;2023-02-15T00:40:55;4.32;;;1.42;;
68989;SDS011;56046;47.270;11.368;2023-02-15T00:43:20;3.67;;;1.38;;
68989;SDS011;56046;47.270;11.368;2023-02-15T00:45:46;5.70;;;1.70;;
68989;SDS011;56046;47.270;11.368;2023-02-15T00:48:11;7.33;;;1.97;;
68989;SDS011;56046;47.270;11.368;2023-02-15T00:50:36;3.73;;;1.60;;
68989;SDS011;56046;47.270;11.368;2023-02-15T00:53:02;5.90;;;1.57;;
68989;SDS011;56046;47.270;11.368;2023-02-15T00:55:27;5.30;;;1.87;;
68989;SDS011;56046;47.270;11.368;2023-02-15T00:57:52;4.67;;;2.00;;
68989;SDS011;56046;47.270;11.368;2023-02-15T01:00:17;5.33;;;1.87;;
68989;SDS011;56046;47.270;11.368;2023-02-15T01:02:43;5.07;;;2.10;;
68989;SDS011;56046;47.270;11.368;2023-02-15T01:05:08;5.13;;;2.07;;
68989;SDS011;56046;47.270;11.368;2023-02-15T01:07:33;6.03;;;2.33;;
68989;SDS011;56046;47.270;11.368;2023-02-15T01:09:58;6.53;;;2.50;;
68989;SDS011;56046;47.270;11.368;2023-02-15T01:12:24;7.20;;;2.33;;
68989;SDS011;56046;47.270;11.368;2023-02-15T01:14:51;6.75;;;2.90;;
68989;SDS011;56046;47.270;11.368;2023-02-15T01:17:16;8.37;;;3.00;;
68989;SDS011;56046;47.270;11.368;2023-02-15T01:19:42;7.47;;;3.07;;
68989;SDS011;56046;47.270;11.368;2023-02-15T01:22:07;7.70;;;3.00;;
68989;SDS011;56046;47.270;11.368;2023-02-15T01:24:32;7.87;;;3.00;;
68989;SDS011;56046;47.270;11.368;2023-02-15T01:26:57;8.27;;;3.10;;
68989;SDS011;56046;47.270;11.368;2023-02-15T01:29:23;7.80;;;3.23;;
68989;SDS011;56046;47.270;11.368;2023-02-15T01:31:48;10.57;;;3.70;;
68989;SDS011;56046;47.270;11.368;2023-02-15T01:34:14;6.43;;;2.60;;
68989;SDS011;56046;47.270;11.368;2023-02-15T01:36:39;7.80;;;3.20;;
68989;SDS011;56046;47.270;11.368;2023-02-15T01:39:04;9.43;;;3.17;;
68989;SDS011;56046;47.270;11.368;2023-02-15T01:41:29;6.93;;;2.90;;
68989;SDS011;56046;47.270;11.368;2023-02-15T01:46:28;4.53;;;1.70;;
68989;SDS011;56046;47.270;11.368;2023-02-15T01:49:08;7.35;;;2.42;;
68989;SDS011;56046;47.270;11.368;2023-02-15T01:51:35;7.30;;;2.15;;
68989;SDS011;56046;47.270;11.368;2023-02-15T01:54:02;5.80;;;2.30;;
68989;SDS011;56046;47.270;11.368;2023-02-15T01:56:31;7.10;;;2.00;;
68989;SDS011;56046;47.270;11.368;2023-02-15T01:58:58;5.18;;;1.63;;
68989;SDS011;56046;47.270;11.368;2023-02-15T02:01:25;6.32;;;2.17;;
68989;SDS011;56046;47.270;11.368;2023-02-15T02:06:32;5.75;;;2.45;;
68989;SDS011;56046;47.270;11.368;2023-02-15T02:08:57;7.90;;;2.88;;
68989;SDS011;56046;47.270;11.368;2023-02-15T02:11:23;9.00;;;2.47;;
68989;SDS011;56046;47.270;11.368;2023-02-15T02:13:48;7.30;;;2.40;;
68989;SDS011;56046;47.270;11.368;2023-02-15T02:21:50;3.13;;;1.30;;
68989;SDS011;56046;47.270;11.368;2023-02-15T02:27:05;6.07;;;1.83;;
68989;SDS011;56046;47.270;11.368;2023-02-15T02:40:11;4.60;;;1.73;;
68989;SDS011;56046;47.270;11.368;2023-02-15T02:42:42;5.10;;;1.67;;
68989;SDS011;56046;47.270;11.368;2023-02-15T02:45:09;3.17;;;1.50;;
68989;SDS011;56046;47.270;11.368;2023-02-15T02:50:07;6.40;;;1.95;;
68989;SDS011;56046;47.270;11.368;2023-02-15T02:55:05;6.40;;;1.95;;
68989;SDS011;56046;47.270;11.368;2023-02-15T02:57:31;4.57;;;1.58;;
68989;SDS011;56046;47.270;11.368;2023-02-15T02:59:57;5.05;;;1.70;;
68989;SDS011;56046;47.270;11.368;2023-02-15T03:02:26;6.38;;;1.90;;
68989;SDS011;56046;47.270;11.368;2023-02-15T03:04:56;5.60;;;2.20;;
68989;SDS011;56046;47.270;11.368;2023-02-15T03:07:23;5.63;;;2.10;;
68989;SDS011;56046;47.270;11.368;2023-02-15T03:09:51;5.38;;;2.40;;
68989;SDS011;56046;47.270;11.368;2023-02-15T03:12:18;5.93;;;1.90;;
68989;SDS011;56046;47.270;11.368;2023-02-15T03:14:45;6.25;;;1.92;;
68989;SDS011;56046;47.270;11.368;2023-02-15T03:17:11;5.17;;;2.00;;
68989;SDS011;56046;47.270;11.368;2023-02-15T03:19:38;4.63;;;1.98;;
68989;SDS011;56046;47.270;11.368;2023-02-15T03:22:05;3.78;;;1.80;;
68989;SDS011;56046;47.270;11.368;2023-02-15T03:27:06;5.00;;;1.97;;
68989;SDS011;56046;47.270;11.368;2023-02-15T03:29:32;4.72;;;1.60;;
68989;SDS011;56046;47.270;11.368;2023-02-15T03:31:59;4.40;;;1.20;;
68989;SDS011;56046;47.270;11.368;2023-02-15T03:34:26;3.60;;;1.30;;
68989;SDS011;56046;47.270;11.368;2023-02-15T03:39:33;3.97;;;1.30;;
68989;SDS011;56046;47.270;11.368;2023-02-15T03:42:10;5.18;;;1.58;;
68989;SDS011;56046;47.270;11.368;2023-02-15T03:44:47;6.10;;;2.00;;
68989;SDS011;56046;47.270;11.368;2023-02-15T03:47:16;3.88;;;1.17;;
68989;SDS011;56046;47.270;11.368;2023-02-15T03:49:48;3.83;;;1.30;;
68989;SDS011;56046;47.270;11.368;2023-02-15T03:52:15;7.63;;;1.50;;
68989;SDS011;56046;47.270;11.368;2023-02-15T03:54:41;4.05;;;1.23;;
68989;SDS011;56046;47.270;11.368;2023-02-15T03:57:10;6.05;;;1.60;;
68989;SDS011;56046;47.270;11.368;2023-02-15T03:59:54;5.18;;;1.67;;
68989;SDS011;56046;47.270;11.368;2023-02-15T04:02:38;5.53;;;2.13;;
68989;SDS011;56046;47.270;11.368;2023-02-15T04:05:04;6.25;;;1.80;;
68989;SDS011;56046;47.270;11.368;2023-02-15T04:07:30;6.37;;;2.43;;
68989;SDS011;56046;47.270;11.368;2023-02-15T04:09:55;7.63;;;2.20;;
68989;SDS011;56046;47.270;11.368;2023-02-15T04:12:39;6.93;;;2.55;;
68989;SDS011;56046;47.270;11.368;2023-02-15T04:15:04;5.87;;;2.00;;
68989;SDS011;56046;47.270;11.368;2023-02-15T04:17:48;5.32;;;2.17;;
68989;SDS011;56046;47.270;11.368;2023-02-15T04:20:13;5.30;;;2.00;;
68989;SDS011;56046;47.270;11.368;2023-02-15T04:22:57;5.78;;;1.83;;
68989;SDS011;56046;47.270;11.368;2023-02-15T04:25:41;5.47;;;1.92;;
68989;SDS011;56046;47.270;11.368;2023-02-15T04:28:06;4.70;;;1.60;;
68989;SDS011;56046;47.270;11.368;2023-02-15T04:30:32;3.97;;;1.50;;
68989;SDS011;56046;47.270;11.368;2023-02-15T04:32:58;6.78;;;2.00;;
68989;SDS011;56046;47.270;11.368;2023-02-15T04:35:23;4.33;;;1.53;;
68989;SDS011;56046;47.270;11.368;2023-02-15T04:37:48;3.33;;;1.47;;
68989;SDS011;56046;47.270;11.368;2023-02-15T04:40:14;4.57;;;1.60;;
68989;SDS011;56046;47.270;11.368;2023-02-15T04:42:39;3.90;;;1.58;;
68989;SDS011;56046;47.270;11.368;2023-02-15T04:45:05;5.20;;;1.70;;
68989;SDS011;56046;47.270;11.368;2023-02-15T04:47:30;5.67;;;1.80;;
68989;SDS011;56046;47.270;11.368;2023-02-15T04:49:58;7.07;;;1.90;;
68989;SDS011;56046;47.270;11.368;2023-02-15T04:52:24;5.25;;;1.88;;
68989;SDS011;56046;47.270;11.368;2023-02-15T04:54:49;3.63;;;1.60;;
68989;SDS011;56046;47.270;11.368;2023-02-15T04:57:14;3.53;;;1.50;;
68989;SDS011;56046;47.270;11.368;2023-02-15T04:59:39;5.23;;;1.43;;
68989;SDS011;56046;47.270;11.368;2023-02-15T05:02:05;4.40;;;1.27;;
68989;SDS011;56046;47.270;11.368;2023-02-15T05:04:30;3.60;;;1.10;;
68989;SDS011;56046;47.270;11.368;2023-02-15T05:06:55;4.32;;;1.23;;
68989;SDS011;56046;47.270;11.368;2023-02-15T05:09:21;4.03;;;1.20;;
68989;SDS011;56046;47.270;11.368;2023-02-15T05:11:46;4.00;;;1.40;;
68989;SDS011;56046;47.270;11.368;2023-02-15T05:14:11;5.07;;;1.93;;
68989;SDS011;56046;47.270;11.368;2023-02-15T05:16:37;4.23;;;1.50;;
68989;SDS011;56046;47.270;11.368;2023-02-15T05:19:02;3.37;;;1.53;;
68989;SDS011;56046;47.270;11.368;2023-02-15T05:21:27;4.70;;;1.53;;
68989;SDS011;56046;47.270;11.368;2023-02-15T05:23:52;4.67;;;1.13;;
68989;SDS011;56046;47.270;11.368;2023-02-15T05:26:19;4.20;;;1.10;;
68989;SDS011;56046;47.270;11.368;2023-02-15T05:29:03;3.88;;;1.15;;
68989;SDS011;56046;47.270;11.368;2023-02-15T05:31:28;4.90;;;1.13;;
68989;SDS011;56046;47.270;11.368;2023-02-15T05:33:54;6.17;;;1.47;;
68989;SDS011;56046;47.270;11.368;2023-02-15T05:36:19;2.40;;;1.00;;
68989;SDS011;56046;47.270;11.368;2023-02-15T05:38:44;2.20;;;0.87;;
68989;SDS011;56046;47.270;11.368;2023-02-15T05:41:10;2.97;;;1.17;;
68989;SDS011;56046;47.270;11.368;2023-02-15T05:43:35;2.60;;;1.30;;
68989;SDS011;56046;47.270;11.368;2023-02-15T05:46:01;2.97;;;0.90;;
68989;SDS011;56046;47.270;11.368;2023-02-15T05:48:27;3.83;;;1.07;;
68989;SDS011;56046;47.270;11.368;2023-02-15T05:53:27;2.67;;;1.23;;
68989;SDS011;56046;47.270;11.368;2023-02-15T05:55:52;3.23;;;1.03;;
68989;SDS011;56046;47.270;11.368;2023-02-15T05:58:19;3.22;;;1.08;;
68989;SDS011;56046;47.270;11.368;2023-02-15T06:00:45;3.25;;;1.10;;
68989;SDS011;56046;47.270;11.368;2023-02-15T06:03:10;4.17;;;1.10;;
68989;SDS011;56046;47.270;11.368;2023-02-15T06:05:35;2.87;;;0.90;;
68989;SDS011;56046;47.270;11.368;2023-02-15T06:08:00;2.97;;;0.90;;
68989;SDS011;56046;47.270;11.368;2023-02-15T06:10:26;5.77;;;1.47;;
68989;SDS011;56046;47.270;11.368;2023-02-15T06:12:51;4.20;;;1.43;;
68989;SDS011;56046;47.270;11.368;2023-02-15T06:15:16;4.23;;;1.17;;
68989;SDS011;56046;47.270;11.368;2023-02-15T06:17:42;3.77;;;1.30;;
68989;SDS011;56046;47.270;11.368;2023-02-15T06:20:07;4.10;;;0.95;;
68989;SDS011;56046;47.270;11.368;2023-02-15T06:22:33;3.65;;;1.00;;
68989;SDS011;56046;47.270;11.368;2023-02-15T06:24:58;5.10;;;2.33;;
68989;SDS011;56046;47.270;11.368;2023-02-15T06:27:23;3.67;;;1.70;;
68989;SDS011;56046;47.270;11.368;2023-02-15T06:29:49;4.97;;;1.97;;
68989;SDS011;56046;47.270;11.368;2023-02-15T06:32:14;5.00;;;1.80;;
68989;SDS011;56046;47.270;11.368;2023-02-15T06:34:39;4.27;;;1.60;;
68989;SDS011;56046;47.270;11.368;2023-02-15T06:37:05;4.50;;;1.50;;
68989;SDS011;56046;47.270;11.368;2023-02-15T06:39:30;4.38;;;1.70;;
68989;SDS011;56046;47.270;11.368;2023-02-15T06:41:57;3.80;;;1.57;;
68989;SDS011;56046;47.270;11.368;2023-02-15T06:44:22;4.57;;;1.30;;
68989;SDS011;56046;47.270;11.368;2023-02-15T06:46:47;4.70;;;1.30;;
68989;SDS011;56046;47.270;11.368;2023-02-15T06:49:12;5.10;;;1.30;;
68989;SDS011;56046;47.270;11.368;2023-02-15T06:51:38;3.77;;;1.37;;
68989;SDS011;56046;47.270;11.368;2023-02-15T06:54:03;3.80;;;1.50;;
68989;SDS011;56046;47.270;11.368;2023-02-15T06:56:29;5.03;;;1.93;;
68989;SDS011;56046;47.270;11.368;2023-02-15T06:58:54;4.50;;;1.52;;
68989;SDS011;56046;47.270;11.368;2023-02-15T07:01:19;4.27;;;1.20;;
68989;SDS011;56046;47.270;11.368;2023-02-15T07:03:45;3.37;;;1.00;;
68989;SDS011;56046;47.270;11.368;2023-02-15T07:06:10;4.40;;;1.30;;
68989;SDS011;56046;47.270;11.368;2023-02-15T07:08:36;4.22;;;1.20;;
68989;SDS011;56046;47.270;11.368;2023-02-15T07:11:02;4.33;;;1.20;;
68989;SDS011;56046;47.270;11.368;2023-02-15T07:14:05;3.60;;;0.90;;
68989;SDS011;56046;47.270;11.368;2023-02-15T07:16:30;6.30;;;1.00;;
68989;SDS011;56046;47.270;11.368;2023-02-15T07:18:56;4.77;;;1.33;;
68989;SDS011;56046;47.270;11.368;2023-02-15T07:21:21;2.23;;;1.00;;
68989;SDS011;56046;47.270;11.368;2023-02-15T07:23:46;4.87;;;1.60;;
68989;SDS011;56046;47.270;11.368;2023-02-15T07:26:12;3.88;;;1.27;;
68989;SDS011;56046;47.270;11.368;2023-02-15T07:28:37;3.03;;;1.10;;
68989;SDS011;56046;47.270;11.368;2023-02-15T07:31:03;3.70;;;1.10;;
68989;SDS011;56046;47.270;11.368;2023-02-15T07:33:30;2.53;;;1.00;;
68989;SDS011;56046;47.270;11.368;2023-02-15T07:35:56;3.13;;;1.10;;
68989;SDS011;56046;47.270;11.368;2023-02-15T07:38:22;3.38;;;1.10;;
68989;SDS011;56046;47.270;11.368;2023-02-15T07:40:48;4.10;;;1.07;;
68989;SDS011;56046;47.270;11.368;2023-02-15T07:43:13;4.17;;;1.20;;
68989;SDS011;56046;47.270;11.368;2023-02-15T07:45:39;9.25;;;3.05;;
68989;SDS011;56046;47.270;11.368;2023-02-15T07:48:05;8.90;;;3.40;;
68989;SDS011;56046;47.270;11.368;2023-02-15T07:50:31;6.85;;;3.03;;
68989;SDS011;56046;47.270;11.368;2023-02-15T07:52:56;7.97;;;3.30;;
68989;SDS011;56046;47.270;11.368;2023-02-15T07:55:22;6.70;;;2.90;;
68989;SDS011;56046;47.270;11.368;2023-02-15T07:57:48;8.70;;;3.17;;
68989;SDS011;56046;47.270;11.368;2023-02-15T08:00:14;7.30;;;2.90;;
68989;SDS011;56046;47.270;11.368;2023-02-15T08:02:40;6.15;;;2.40;;
68989;SDS011;56046;47.270;11.368;2023-02-15T08:05:06;6.63;;;2.70;;
68989;SDS011;56046;47.270;11.368;2023-02-15T08:07:31;6.45;;;3.67;;
68989;SDS011;56046;47.270;11.368;2023-02-15T08:09:56;6.50;;;3.40;;
68989;SDS011;56046;47.270;11.368;2023-02-15T08:12:22;12.17;;;3.80;;
68989;SDS011;56046;47.270;11.368;2023-02-15T08:14:47;7.77;;;3.07;;
68989;SDS011;56046;47.270;11.368;2023-02-15T08:17:12;7.50;;;3.00;;
68989;SDS011;56046;47.270;11.368;2023-02-15T08:19:37;6.63;;;2.60;;
68989;SDS011;56046;47.270;11.368;2023-02-15T08:22:04;10.17;;;2.97;;
68989;SDS011;56046;47.270;11.368;2023-02-15T08:24:31;7.22;;;3.47;;
68989;SDS011;56046;47.270;11.368;2023-02-15T08:26:56;9.32;;;4.00;;
68989;SDS011;56046;47.270;11.368;2023-02-15T08:29:23;8.50;;;4.50;;
68989;SDS011;56046;47.270;11.368;2023-02-15T08:31:49;8.73;;;4.50;;
68989;SDS011;56046;47.270;11.368;2023-02-15T08:34:16;10.93;;;4.57;;
68989;SDS011;56046;47.270;11.368;2023-02-15T08:36:42;10.52;;;4.90;;
68989;SDS011;56046;47.270;11.368;2023-02-15T08:39:07;7.20;;;2.50;;
68989;SDS011;56046;47.270;11.368;2023-02-15T08:41:36;4.50;;;1.70;;
68989;SDS011;56046;47.270;11.368;2023-02-15T08:44:03;5.53;;;2.17;;
68989;SDS011;56046;47.270;11.368;2023-02-15T08:46:29;4.72;;;1.83;;
68989;SDS011;56046;47.270;11.368;2023-02-15T08:48:55;5.30;;;2.17;;
68989;SDS011;56046;47.270;11.368;2023-02-15T08:51:24;5.27;;;2.10;;
68989;SDS011;56046;47.270;11.368;2023-02-15T08:53:51;6.28;;;2.28;;
68989;SDS011;56046;47.270;11.368;2023-02-15T08:56:20;4.80;;;1.75;;
68989;SDS011;56046;47.270;11.368;2023-02-15T08:58:46;5.70;;;2.78;;
68989;SDS011;56046;47.270;11.368;2023-02-15T09:01:15;8.17;;;2.90;;
68989;SDS011;56046;47.270;11.368;2023-02-15T09:03:45;5.75;;;2.65;;
68989;SDS011;56046;47.270;11.368;2023-02-15T09:06:10;6.30;;;2.20;;
68989;SDS011;56046;47.270;11.368;2023-02-15T09:08:36;4.18;;;1.80;;
68989;SDS011;56046;47.270;11.368;2023-02-15T09:13:36;5.18;;;1.85;;
68989;SDS011;56046;47.270;11.368;2023-02-15T09:16:04;7.50;;;2.50;;
68989;SDS011;56046;47.270;11.368;2023-02-15T09:18:30;6.55;;;2.30;;
68989;SDS011;56046;47.270;11.368;2023-02-15T09:20:56;8.43;;;2.55;;
68989;SDS011;56046;47.270;11.368;2023-02-15T09:23:21;5.32;;;2.25;;
68989;SDS011;56046;47.270;11.368;2023-02-15T09:25:46;5.77;;;2.40;;
68989;SDS011;56046;47.270;11.368;2023-02-15T09:28:12;6.90;;;2.40;;
68989;SDS011;56046;47.270;11.368;2023-02-15T09:30:37;6.05;;;2.40;;
68989;SDS011;56046;47.270;11.368;2023-02-15T09:33:03;8.02;;;2.78;;
68989;SDS011;56046;47.270;11.368;2023-02-15T09:35:28;8.20;;;2.90;;
68989;SDS011;56046;47.270;11.368;2023-02-15T09:37:53;6.40;;;2.67;;
68989;SDS011;56046;47.270;11.368;2023-02-15T09:40:19;6.43;;;2.13;;
68989;SDS011;56046;47.270;11.368;2023-02-15T09:48:04;5.97;;;2.40;;
68989;SDS011;56046;47.270;11.368;2023-02-15T10:27:07;6.88;;;2.30;;
68989;SDS011;56046;47.270;11.368;2023-02-15T10:29:35;6.20;;;2.45;;
68989;SDS011;56046;47.270;11.368;2023-02-15T10:34:37;5.70;;;1.93;;
68989;SDS011;56046;47.270;11.368;2023-02-15T10:45:23;7.00;;;2.38;;
68989;SDS011;56046;47.270;11.368;2023-02-15T10:55:47;8.90;;;2.10;;
68989;SDS011;56046;47.270;11.368;2023-02-15T10:58:17;8.45;;;2.58;;
68989;SDS011;56046;47.270;11.368;2023-02-15T11:03:27;7.20;;;2.50;;
68989;SDS011;56046;47.270;11.368;2023-02-15T11:08:20;4.97;;;2.10;;
68989;SDS011;56046;47.270;11.368;2023-02-15T11:10:48;8.13;;;2.30;;
68989;SDS011;56046;47.270;11.368;2023-02-15T11:13:19;8.40;;;2.75;;
68989;SDS011;56046;47.270;11.368;2023-02-15T11:15:56;5.57;;;2.50;;
68989;SDS011;56046;47.270;11.368;2023-02-15T11:18:32;6.70;;;2.70;;
68989;SDS011;56046;47.270;11.368;2023-02-15T11:21:19;8.00;;;2.70;;
68989;SDS011;56046;47.270;11.368;2023-02-15T11:23:45;7.25;;;2.30;;
68989;SDS011;56046;47.270;11.368;2023-02-15T11:26:35;5.35;;;2.10;;
68989;SDS011;56046;47.270;11.368;2023-02-15T11:29:01;4.80;;;2.13;;
68989;SDS011;56046;47.270;11.368;2023-02-15T11:31:34;4.43;;;1.60;;
68989;SDS011;56046;47.270;11.368;2023-02-15T11:34:04;6.55;;;2.20;;
68989;SDS011;56046;47.270;11.368;2023-02-15T11:36:34;3.70;;;1.80;;
68989;SDS011;56046;47.270;11.368;2023-02-15T11:39:02;10.65;;;5.65;;
68989;SDS011;56046;47.270;11.368;2023-02-15T11:41:30;6.05;;;2.40;;
68989;SDS011;56046;47.270;11.368;2023-02-15T11:46:22;3.85;;;1.75;;
68989;SDS011;56046;47.270;11.368;2023-02-15T11:48:47;3.37;;;1.93;;
68989;SDS011;56046;47.270;11.368;2023-02-15T11:51:14;4.80;;;1.80;;
68989;SDS011;56046;47.270;11.368;2023-02-15T11:53:41;8.98;;;2.53;;
68989;SDS011;56046;47.270;11.368;2023-02-15T11:56:26;4.90;;;1.90;;
68989;SDS011;56046;47.270;11.368;2023-02-15T11:59:10;6.15;;;1.98;;
68989;SDS011;56046;47.270;11.368;2023-02-15T12:01:37;5.53;;;1.80;;
68989;SDS011;56046;47.270;11.368;2023-02-15T12:04:06;4.63;;;1.63;;
68989;SDS011;56046;47.270;11.368;2023-02-15T12:06:34;4.85;;;1.80;;
68989;SDS011;56046;47.270;11.368;2023-02-15T12:11:36;5.75;;;1.88;;
68989;SDS011;56046;47.270;11.368;2023-02-15T12:14:03;5.47;;;2.13;;
68989;SDS011;56046;47.270;11.368;2023-02-15T12:16:31;4.78;;;2.05;;
68989;SDS011;56046;47.270;11.368;2023-02-15T12:18:57;4.50;;;2.00;;
68989;SDS011;56046;47.270;11.368;2023-02-15T12:21:25;8.30;;;1.93;;
68989;SDS011;56046;47.270;11.368;2023-02-15T12:23:52;5.05;;;2.13;;
68989;SDS011;56046;47.270;11.368;2023-02-15T12:26:27;7.22;;;2.08;;
68989;SDS011;56046;47.270;11.368;2023-02-15T12:28:53;7.57;;;1.90;;
68989;SDS011;56046;47.270;11.368;2023-02-15T12:33:47;4.27;;;2.00;;
68989;SDS011;56046;47.270;11.368;2023-02-15T12:36:18;5.10;;;1.80;;
68989;SDS011;56046;47.270;11.368;2023-02-15T12:39:02;4.68;;;2.00;;
68989;SDS011;56046;47.270;11.368;2023-02-15T12:41:27;5.38;;;1.83;;
68989;SDS011;56046;47.270;11.368;2023-02-15T12:44:27;5.90;;;2.17;;
68989;SDS011;56046;47.270;11.368;2023-02-15T12:46:58;7.10;;;2.17;;
68989;SDS011;56046;47.270;11.368;2023-02-15T12:49:24;4.22;;;2.00;;
68989;SDS011;56046;47.270;11.368;2023-02-15T12:52:22;4.53;;;1.90;;
68989;SDS011;56046;47.270;11.368;2023-02-15T12:54:41;4.85;;;2.00;;
68989;SDS011;56046;47.270;11.368;2023-02-15T13:02:53;4.82;;;2.03;;
68989;SDS011;56046;47.270;11.368;2023-02-15T13:05:28;5.40;;;1.85;;
68989;SDS011;56046;47.270;11.368;2023-02-15T13:11:00;4.90;;;2.00;;
68989;SDS011;56046;47.270;11.368;2023-02-15T13:13:31;6.87;;;2.00;;
68989;SDS011;56046;47.270;11.368;2023-02-15T13:15:58;5.18;;;1.98;;
68989;SDS011;56046;47.270;11.368;2023-02-15T13:18:31;4.47;;;2.05;;
68989;SDS011;56046;47.270;11.368;2023-02-15T13:20:59;5.88;;;2.05;;
68989;SDS011;56046;47.270;11.368;2023-02-15T13:23:26;6.30;;;2.10;;
68989;SDS011;56046;47.270;11.368;2023-02-15T13:25:52;5.93;;;2.10;;
68989;SDS011;56046;47.270;11.368;2023-02-15T13:28:18;4.35;;;1.70;;
68989;SDS011;56046;47.270;11.368;2023-02-15T13:30:47;7.30;;;2.03;;
68989;SDS011;56046;47.270;11.368;2023-02-15T13:36:09;10.48;;;1.98;;
68989;SDS011;56046;47.270;11.368;2023-02-15T13:41:33;4.63;;;1.98;;
68989;SDS011;56046;47.270;11.368;2023-02-15T13:49:09;4.93;;;1.63;;
68989;SDS011;56046;47.270;11.368;2023-02-15T13:59:27;3.80;;;1.90;;
68989;SDS011;56046;47.270;11.368;2023-02-15T14:01:58;4.50;;;1.90;;
68989;SDS011;56046;47.270;11.368;2023-02-15T14:05:14;5.85;;;1.77;;
68989;SDS011;56046;47.270;11.368;2023-02-15T14:15:04;7.27;;;2.10;;
68989;SDS011;56046;47.270;11.368;2023-02-15T14:20:22;7.18;;;1.80;;
68989;SDS011;56046;47.270;11.368;2023-02-15T14:22:52;6.38;;;1.88;;
68989;SDS011;56046;47.270;11.368;2023-02-15T14:30:34;8.25;;;2.10;;
68989;SDS011;56046;47.270;11.368;2023-02-15T14:33:04;7.95;;;1.90;;
68989;SDS011;56046;47.270;11.368;2023-02-15T14:35:30;6.63;;;2.03;;
68989;SDS011;56046;47.270;11.368;2023-02-15T14:43:25;7.57;;;1.90;;
68989;SDS011;56046;47.270;11.368;2023-02-15T14:50:46;4.73;;;1.57;;
68989;SDS011;56046;47.270;11.368;2023-02-15T14:55:40;5.07;;;1.70;;
68989;SDS011;56046;47.270;11.368;2023-02-15T14:58:09;5.57;;;1.60;;
68989;SDS011;56046;47.270;11.368;2023-02-15T15:00:38;3.83;;;1.33;;
68989;SDS011;56046;47.270;11.368;2023-02-15T15:03:10;7.32;;;1.33;;
68989;SDS011;56046;47.270;11.368;2023-02-15T15:05:37;7.03;;;1.67;;
68989;SDS011;56046;47.270;11.368;2023-02-15T15:08:19;2.55;;;1.38;;
68989;SDS011;56046;47.270;11.368;2023-02-15T15:10:46;5.00;;;1.67;;
68989;SDS011;56046;47.270;11.368;2023-02-15T15:15:55;5.93;;;2.00;;
68989;SDS011;56046;47.270;11.368;2023-02-15T15:21:06;6.10;;;1.70;;
68989;SDS011;56046;47.270;11.368;2023-02-15T15:23:42;6.20;;;2.00;;
68989;SDS011;56046;47.270;11.368;2023-02-15T15:26:40;6.68;;;1.70;;
68989;SDS011;56046;47.270;11.368;2023-02-15T15:29:02;3.85;;;2.08;;
68989;SDS011;56046;47.270;11.368;2023-02-15T15:31:30;7.40;;;1.80;;
68989;SDS011;56046;47.270;11.368;2023-02-15T15:36:37;6.27;;;1.83;;
68989;SDS011;56046;47.270;11.368;2023-02-15T15:42:39;6.70;;;1.35;;
68989;SDS011;56046;47.270;11.368;2023-02-15T15:49:48;5.13;;;1.90;;
68989;SDS011;56046;47.270;11.368;2023-02-15T15:52:15;3.67;;;1.63;;
68989;SDS011;56046;47.270;11.368;2023-02-15T15:54:41;7.22;;;2.10;;
68989;SDS011;56046;47.270;11.368;2023-02-15T15:57:14;4.82;;;1.88;;
68989;SDS011;56046;47.270;11.368;2023-02-15T15:59:43;8.40;;;2.23;;
68989;SDS011;56046;47.270;11.368;2023-02-15T16:02:13;7.30;;;2.20;;
68989;SDS011;56046;47.270;11.368;2023-02-15T16:04:41;8.85;;;2.95;;
68989;SDS011;56046;47.270;11.368;2023-02-15T16:07:40;6.75;;;1.92;;
68989;SDS011;56046;47.270;11.368;2023-02-15T16:10:03;5.90;;;1.85;;
68989;SDS011;56046;47.270;11.368;2023-02-15T16:12:30;4.83;;;1.90;;
68989;SDS011;56046;47.270;11.368;2023-02-15T16:14:55;9.00;;;2.05;;
68989;SDS011;56046;47.270;11.368;2023-02-15T16:17:25;3.53;;;1.60;;
68989;SDS011;56046;47.270;11.368;2023-02-15T16:19:53;6.70;;;1.65;;
68989;SDS011;56046;47.270;11.368;2023-02-15T16:22:23;3.73;;;1.50;;
68989;SDS011;56046;47.270;11.368;2023-02-15T16:24:56;4.10;;;1.25;;
68989;SDS011;56046;47.270;11.368;2023-02-15T16:27:28;4.28;;;1.60;;
68989;SDS011;56046;47.270;11.368;2023-02-15T16:29:55;3.53;;;1.05;;
68989;SDS011;56046;47.270;11.368;2023-02-15T16:32:29;4.87;;;1.60;;
68989;SDS011;56046;47.270;11.368;2023-02-15T16:37:22;6.07;;;1.60;;
68989;SDS011;56046;47.270;11.368;2023-02-15T16:39:49;4.63;;;1.70;;
68989;SDS011;56046;47.270;11.368;2023-02-15T16:42:15;3.97;;;1.10;;
68989;SDS011;56046;47.270;11.368;2023-02-15T16:44:45;3.13;;;1.50;;
68989;SDS011;56046;47.270;11.368;2023-02-15T16:47:21;3.63;;;1.40;;
68989;SDS011;56046;47.270;11.368;2023-02-15T16:49:50;6.80;;;1.40;;
68989;SDS011;56046;47.270;11.368;2023-02-15T16:52:20;3.88;;;1.30;;
68989;SDS011;56046;47.270;11.368;2023-02-15T16:54:52;3.70;;;1.42;;
68989;SDS011;56046;47.270;11.368;2023-02-15T16:57:20;3.65;;;1.27;;
68989;SDS011;56046;47.270;11.368;2023-02-15T16:59:47;5.90;;;1.70;;
68989;SDS011;56046;47.270;11.368;2023-02-15T17:02:19;3.20;;;1.63;;
68989;SDS011;56046;47.270;11.368;2023-02-15T17:04:45;5.20;;;2.00;;
68989;SDS011;56046;47.270;11.368;2023-02-15T17:07:24;6.43;;;1.70;;
68989;SDS011;56046;47.270;11.368;2023-02-15T17:09:51;5.07;;;1.50;;
68989;SDS011;56046;47.270;11.368;2023-02-15T17:15:00;6.43;;;1.33;;
68989;SDS011;56046;47.270;11.368;2023-02-15T17:17:27;2.77;;;1.10;;
68989;SDS011;56046;47.270;11.368;2023-02-15T17:19:55;4.18;;;2.05;;
68989;SDS011;56046;47.270;11.368;2023-02-15T17:22:22;4.25;;;1.88;;
68989;SDS011;56046;47.270;11.368;2023-02-15T17:24:50;10.17;;;4.17;;
68989;SDS011;56046;47.270;11.368;2023-02-15T17:27:23;4.70;;;1.73;;
68989;SDS011;56046;47.270;11.368;2023-02-15T17:29:51;5.18;;;1.30;;
68989;SDS011;56046;47.270;11.368;2023-02-15T17:32:24;2.58;;;1.30;;
68989;SDS011;56046;47.270;11.368;2023-02-15T17:34:57;2.72;;;0.98;;
68989;SDS011;56046;47.270;11.368;2023-02-15T17:37:28;5.20;;;1.37;;
68989;SDS011;56046;47.270;11.368;2023-02-15T17:39:54;7.05;;;2.08;;
68989;SDS011;56046;47.270;11.368;2023-02-15T17:42:20;4.07;;;1.60;;
68989;SDS011;56046;47.270;11.368;2023-02-15T17:44:46;3.30;;;0.83;;
68989;SDS011;56046;47.270;11.368;2023-02-15T17:47:16;5.73;;;1.30;;
68989;SDS011;56046;47.270;11.368;2023-02-15T17:49:43;5.90;;;1.30;;